sensor_id;sensor_type;location;lat;lon;timestamp;pressure;altitude;pressure_sealevel;temperature;humidity
58385;BME280;44185;47.844;8.966;2023-03-23T00:01:11;95715.38;;;7.05;100.00
58385;BME280;44185;47.844;8.966;2023-03-23T00:03:36;95719.31;;;7.11;100.00
58385;BME280;44185;47.844;8.966;2023-03-23T00:06:03;95719.03;;;7.14;100.00
58385;BME280;44185;47.844;8.966;2023-03-23T00:08:29;95717.84;;;7.18;100.00
58385;BME280;44185;47.844;8.966;2023-03-23T00:10:54;95718.47;;;7.10;100.00
58385;BME280;44185;47.844;8.966;2023-03-23T00:13:20;95716.78;;;7.09;100.00
58385;BME280;44185;47.844;8.966;2023-03-23T00:15:45;95713.59;;;7.06;100.00
58385;BME280;44185;47.844;8.966;2023-03-23T00:18:11;95720.75;;;7.04;100.00
58385;BME280;44185;47.844;8.966;2023-03-23T00:20:36;95721.34;;;7.07;100.00
58385;BME280;44185;47.844;8.966;2023-03-23T00:23:03;95709.88;;;7.08;100.00
58385;BME280;44185;47.844;8.966;2023-03-23T00:25:28;95715.38;;;7.05;100.00
58385;BME280;44185;47.844;8.966;2023-03-23T00:27:54;95714.41;;;7.06;100.00
58385;BME280;44185;47.844;8.966;2023-03-23T00:30:19;95721.72;;;7.03;100.00
58385;BME280;44185;47.844;8.966;2023-03-23T00:32:45;95717.66;;;6.98;100.00
58385;BME280;44185;47.844;8.966;2023-03-23T00:35:10;95711.06;;;7.04;100.00
58385;BME280;44185;47.844;8.966;2023-03-23T00:37:36;95717.03;;;7.06;100.00
58385;BME280;44185;47.844;8.966;2023-03-23T00:40:03;95705.06;;;7.14;100.00
58385;BME280;44185;47.844;8.966;2023-03-23T00:42:29;95706.03;;;7.12;100.00
58385;BME280;44185;47.844;8.966;2023-03-23T00:44:54;95702.78;;;7.09;100.00
58385;BME280;44185;47.844;8.966;2023-03-23T00:47:19;95709.94;;;7.18;100.00
58385;BME280;44185;47.844;8.966;2023-03-23T00:49:45;95712.22;;;7.11;100.00
58385;BME280;44185;47.844;8.966;2023-03-23T00:52:10;95702.06;;;7.18;100.00
58385;BME280;44185;47.844;8.966;2023-03-23T00:54:36;95703.84;;;7.18;100.00
58385;BME280;44185;47.844;8.966;2023-03-23T00:57:03;95694.78;;;7.10;100.00
58385;BME280;44185;47.844;8.966;2023-03-23T00:59:29;95696.19;;;7.15;100.00
58385;BME280;44185;47.844;8.966;2023-03-23T01:01:54;95691.53;;;7.18;100.00
58385;BME280;44185;47.844;8.966;2023-03-23T01:04:19;95693.06;;;7.21;100.00
58385;BME280;44185;47.844;8.966;2023-03-23T01:06:49;95684.47;;;7.19;100.00
58385;BME280;44185;47.844;8.966;2023-03-23T01:09:15;95686.50;;;7.27;100.00
58385;BME280;44185;47.844;8.966;2023-03-23T01:11:41;95684.09;;;7.23;100.00
58385;BME280;44185;47.844;8.966;2023-03-23T01:14:09;95683.41;;;7.21;100.00
58385;BME280;44185;47.844;8.966;2023-03-23T01:16:35;95676.00;;;7.15;100.00
58385;BME280;44185;47.844;8.966;2023-03-23T01:19:00;95678.63;;;7.15;100.00
58385;BME280;44185;47.844;8.966;2023-03-23T01:21:26;95683.28;;;7.11;100.00
58385;BME280;44185;47.844;8.966;2023-03-23T01:23:51;95682.13;;;7.04;100.00
58385;BME280;44185;47.844;8.966;2023-03-23T01:26:19;95672.00;;;6.88;100.00
58385;BME280;44185;47.844;8.966;2023-03-23T01:28:45;95677.03;;;6.79;100.00
58385;BME280;44185;47.844;8.966;2023-03-23T01:31:14;95674.75;;;6.98;100.00
58385;BME280;44185;47.844;8.966;2023-03-23T01:33:40;95675.06;;;7.05;100.00
58385;BME280;44185;47.844;8.966;2023-03-23T01:36:07;95669.44;;;7.09;100.00
58385;BME280;44185;47.844;8.966;2023-03-23T01:38:34;95657.94;;;7.10;100.00
58385;BME280;44185;47.844;8.966;2023-03-23T01:41:00;95667.25;;;7.15;100.00
58385;BME280;44185;47.844;8.966;2023-03-23T01:43:26;95667.25;;;7.15;100.00
58385;BME280;44185;47.844;8.966;2023-03-23T01:45:51;95650.50;;;7.16;100.00
58385;BME280;44185;47.844;8.966;2023-03-23T01:48:22;95670.97;;;7.12;100.00
58385;BME280;44185;47.844;8.966;2023-03-23T01:50:53;95682.31;;;7.24;100.00
58385;BME280;44185;47.844;8.966;2023-03-23T01:53:21;95683.84;;;7.27;100.00
58385;BME280;44185;47.844;8.966;2023-03-23T01:55:49;95686.13;;;7.20;100.00
58385;BME280;44185;47.844;8.966;2023-03-23T01:58:21;95691.63;;;7.17;100.00
58385;BME280;44185;47.844;8.966;2023-03-23T02:00:49;95698.25;;;7.11;100.00
58385;BME280;44185;47.844;8.966;2023-03-23T02:03:14;95692.84;;;7.12;100.00
58385;BME280;44185;47.844;8.966;2023-03-23T02:05:42;95692.84;;;7.12;100.00
58385;BME280;44185;47.844;8.966;2023-03-23T02:08:09;95705.78;;;7.16;100.00
58385;BME280;44185;47.844;8.966;2023-03-23T02:10:36;95700.28;;;7.19;100.00
58385;BME280;44185;47.844;8.966;2023-03-23T02:13:03;95707.31;;;7.18;100.00
58385;BME280;44185;47.844;8.966;2023-03-23T02:15:35;95686.34;;;7.28;100.00
58385;BME280;44185;47.844;8.966;2023-03-23T02:18:08;95691.50;;;7.30;100.00
58385;BME280;44185;47.844;8.966;2023-03-23T02:20:52;95687.06;;;7.30;100.00
58385;BME280;44185;47.844;8.966;2023-03-23T02:23:48;95683.84;;;7.27;100.00
58385;BME280;44185;47.844;8.966;2023-03-23T02:26:33;95679.28;;;7.29;100.00
58385;BME280;44185;47.844;8.966;2023-03-23T02:29:23;95689.16;;;7.15;100.00
58385;BME280;44185;47.844;8.966;2023-03-23T02:32:07;95681.28;;;7.04;100.00
58385;BME280;44185;47.844;8.966;2023-03-23T02:34:38;95671.75;;;6.91;100.00
58385;BME280;44185;47.844;8.966;2023-03-23T02:37:09;95675.19;;;7.03;100.00
58385;BME280;44185;47.844;8.966;2023-03-23T02:39:42;95668.13;;;7.04;100.00
58385;BME280;44185;47.844;8.966;2023-03-23T02:42:09;95680.34;;;7.05;100.00
58385;BME280;44185;47.844;8.966;2023-03-23T02:44:39;95682.47;;;7.11;100.00
58385;BME280;44185;47.844;8.966;2023-03-23T02:47:08;95691.53;;;7.18;100.00
58385;BME280;44185;47.844;8.966;2023-03-23T02:49:39;95696.28;;;7.25;100.00
58385;BME280;44185;47.844;8.966;2023-03-23T02:52:08;95697.00;;;7.27;100.00
58385;BME280;44185;47.844;8.966;2023-03-23T02:54:35;95696.50;;;7.33;100.00
58385;BME280;44185;47.844;8.966;2023-03-23T02:57:01;95692.78;;;7.36;100.00
58385;BME280;44185;47.844;8.966;2023-03-23T02:59:27;95694.13;;;7.30;100.00
58385;BME280;44185;47.844;8.966;2023-03-23T03:02:01;95685.19;;;7.21;100.00
58385;BME280;44185;47.844;8.966;2023-03-23T03:04:30;95674.63;;;7.32;100.00
58385;BME280;44185;47.844;8.966;2023-03-23T03:09:51;95647.19;;;7.14;100.00
58385;BME280;44185;47.844;8.966;2023-03-23T03:12:25;95625.69;;;7.08;100.00
58385;BME280;44185;47.844;8.966;2023-03-23T03:14:59;95631.19;;;7.05;100.00
58385;BME280;44185;47.844;8.966;2023-03-23T03:17:29;95612.53;;;7.08;100.00
58385;BME280;44185;47.844;8.966;2023-03-23T03:19:58;95611.88;;;7.16;100.00
58385;BME280;44185;47.844;8.966;2023-03-23T03:22:27;95632.66;;;7.19;100.00
58385;BME280;44185;47.844;8.966;2023-03-23T03:24:55;95627.28;;;7.21;100.00
58385;BME280;44185;47.844;8.966;2023-03-23T03:27:21;95607.97;;;7.10;100.00
58385;BME280;44185;47.844;8.966;2023-03-23T03:29:53;95613.16;;;7.00;100.00
58385;BME280;44185;47.844;8.966;2023-03-23T03:32:22;95608.84;;;6.99;100.00
58385;BME280;44185;47.844;8.966;2023-03-23T03:34:49;95622.31;;;7.06;100.00
58385;BME280;44185;47.844;8.966;2023-03-23T03:37:15;95615.59;;;7.14;100.00
58385;BME280;44185;47.844;8.966;2023-03-23T03:39:43;95614.25;;;7.19;100.00
58385;BME280;44185;47.844;8.966;2023-03-23T03:42:08;95616.88;;;7.19;100.00
58385;BME280;44185;47.844;8.966;2023-03-23T03:44:34;95613.75;;;7.26;100.00
58385;BME280;44185;47.844;8.966;2023-03-23T03:47:00;95614.25;;;7.19;100.00
58385;BME280;44185;47.844;8.966;2023-03-23T03:49:25;95617.16;;;7.16;100.00
58385;BME280;44185;47.844;8.966;2023-03-23T03:51:51;95605.25;;;7.22;100.00
58385;BME280;44185;47.844;8.966;2023-03-23T03:54:17;95621.44;;;7.17;100.00
58385;BME280;44185;47.844;8.966;2023-03-23T03:56:44;95616.16;;;7.17;100.00
58385;BME280;44185;47.844;8.966;2023-03-23T03:59:09;95630.03;;;7.19;100.00
58385;BME280;44185;47.844;8.966;2023-03-23T04:01:37;95641.78;;;7.15;100.00
58385;BME280;44185;47.844;8.966;2023-03-23T04:04:03;95635.56;;;7.16;100.00
58385;BME280;44185;47.844;8.966;2023-03-23T04:06:28;95639.41;;;7.12;100.00
58385;BME280;44185;47.844;8.966;2023-03-23T04:08:54;95640.88;;;7.05;100.00
58385;BME280;44185;47.844;8.966;2023-03-23T04:11:19;95640.38;;;7.11;100.00
58385;BME280;44185;47.844;8.966;2023-03-23T04:13:46;95636.06;;;7.10;100.00
58385;BME280;44185;47.844;8.966;2023-03-23T04:16:12;95637.84;;;7.09;100.00
58385;BME280;44185;47.844;8.966;2023-03-23T04:18:38;95638.84;;;7.08;100.00
58385;BME280;44185;47.844;8.966;2023-03-23T04:21:04;95646.34;;;7.13;100.00
58385;BME280;44185;47.844;8.966;2023-03-23T04:23:31;95645.00;;;7.19;100.00
58385;BME280;44185;47.844;8.966;2023-03-23T04:25:56;95639.34;;;7.23;100.00
58385;BME280;44185;47.844;8.966;2023-03-23T04:28:22;95646.28;;;7.25;100.00
58385;BME280;44185;47.844;8.966;2023-03-23T04:30:51;95646.03;;;7.28;100.00
58385;BME280;44185;47.844;8.966;2023-03-23T04:33:17;95645.19;;;7.27;100.00
58385;BME280;44185;47.844;8.966;2023-03-23T04:35:42;95639.91;;;7.27;100.00
58385;BME280;44185;47.844;8.966;2023-03-23T04:38:08;95648.09;;;7.24;100.00
58385;BME280;44185;47.844;8.966;2023-03-23T04:40:36;95643.31;;;7.18;100.00
58385;BME280;44185;47.844;8.966;2023-03-23T04:43:01;95644.88;;;7.20;100.00
58385;BME280;44185;47.844;8.966;2023-03-23T04:45:27;95636.84;;;7.22;100.00
58385;BME280;44185;47.844;8.966;2023-03-23T04:47:54;95631.75;;;7.09;100.00
58385;BME280;44185;47.844;8.966;2023-03-23T04:50:27;95627.72;;;7.05;100.00
58385;BME280;44185;47.844;8.966;2023-03-23T04:52:53;95625.84;;;6.95;100.00
58385;BME280;44185;47.844;8.966;2023-03-23T04:55:19;95621.38;;;7.07;100.00
58385;BME280;44185;47.844;8.966;2023-03-23T04:57:45;95618.81;;;6.84;100.00
58385;BME280;44185;47.844;8.966;2023-03-23T05:00:11;95622.56;;;6.70;100.00
58385;BME280;44185;47.844;8.966;2023-03-23T05:02:36;95616.97;;;6.63;100.00
58385;BME280;44185;47.844;8.966;2023-03-23T05:05:04;95621.88;;;6.56;100.00
58385;BME280;44185;47.844;8.966;2023-03-23T05:07:30;95630.91;;;6.64;100.00
58385;BME280;44185;47.844;8.966;2023-03-23T05:09:55;95626.75;;;6.61;100.00
58385;BME280;44185;47.844;8.966;2023-03-23T05:12:20;95624.72;;;6.65;100.00
58385;BME280;44185;47.844;8.966;2023-03-23T05:14:46;95612.28;;;6.67;100.00
58385;BME280;44185;47.844;8.966;2023-03-23T05:17:11;95610.25;;;6.59;100.00
58385;BME280;44185;47.844;8.966;2023-03-23T05:19:37;95613.50;;;6.63;100.00
58385;BME280;44185;47.844;8.966;2023-03-23T05:22:04;95618.75;;;6.63;100.00
58385;BME280;44185;47.844;8.966;2023-03-23T05:24:29;95622.94;;;6.65;100.00
58385;BME280;44185;47.844;8.966;2023-03-23T05:26:55;95619.78;;;6.72;100.00
58385;BME280;44185;47.844;8.966;2023-03-23T05:29:20;95614.97;;;6.44;100.00
58385;BME280;44185;47.844;8.966;2023-03-23T05:31:46;95624.41;;;6.47;100.00
58385;BME280;44185;47.844;8.966;2023-03-23T05:34:11;95630.03;;;6.42;100.00
58385;BME280;44185;47.844;8.966;2023-03-23T05:36:37;95628.22;;;6.42;100.00
58385;BME280;44185;47.844;8.966;2023-03-23T05:39:04;95627.88;;;6.47;100.00
58385;BME280;44185;47.844;8.966;2023-03-23T05:41:29;95629.41;;;6.50;100.00
58385;BME280;44185;47.844;8.966;2023-03-23T05:43:54;95639.69;;;6.53;100.00
58385;BME280;44185;47.844;8.966;2023-03-23T05:46:20;95636.31;;;6.51;100.00
58385;BME280;44185;47.844;8.966;2023-03-23T05:48:45;95650.91;;;6.55;100.00
58385;BME280;44185;47.844;8.966;2023-03-23T05:51:11;95650.22;;;6.53;100.00
58385;BME280;44185;47.844;8.966;2023-03-23T05:53:36;95646.38;;;6.45;100.00
58385;BME280;44185;47.844;8.966;2023-03-23T05:56:04;95649.00;;;6.57;100.00
58385;BME280;44185;47.844;8.966;2023-03-23T05:58:29;95640.63;;;6.63;100.00
58385;BME280;44185;47.844;8.966;2023-03-23T06:00:55;95642.28;;;6.64;100.00
58385;BME280;44185;47.844;8.966;2023-03-23T06:03:20;95635.94;;;6.67;100.00
58385;BME280;44185;47.844;8.966;2023-03-23T06:05:46;95640.34;;;6.66;100.00
58385;BME280;44185;47.844;8.966;2023-03-23T06:08:11;95648.72;;;6.72;100.00
58385;BME280;44185;47.844;8.966;2023-03-23T06:10:37;95653.34;;;6.79;100.00
58385;BME280;44185;47.844;8.966;2023-03-23T06:13:04;95660.53;;;6.89;100.00
58385;BME280;44185;47.844;8.966;2023-03-23T06:15:29;95651.19;;;6.85;100.00
58385;BME280;44185;47.844;8.966;2023-03-23T06:17:58;95653.00;;;6.84;100.00
58385;BME280;44185;47.844;8.966;2023-03-23T06:20:23;95658.28;;;6.84;100.00
58385;BME280;44185;47.844;8.966;2023-03-23T06:22:49;95652.84;;;6.97;100.00
58385;BME280;44185;47.844;8.966;2023-03-23T06:25:14;95661.06;;;7.04;100.00
58385;BME280;44185;47.844;8.966;2023-03-23T06:27:40;95656.63;;;7.16;100.00
58385;BME280;44185;47.844;8.966;2023-03-23T06:30:08;95644.25;;;7.28;100.00
58385;BME280;44185;47.844;8.966;2023-03-23T06:32:34;95650.09;;;7.32;100.00
58385;BME280;44185;47.844;8.966;2023-03-23T06:34:59;95654.53;;;7.31;100.00
58385;BME280;44185;47.844;8.966;2023-03-23T06:37:25;95661.28;;;7.45;100.00
58385;BME280;44185;47.844;8.966;2023-03-23T06:39:50;95663.53;;;7.50;100.00
58385;BME280;44185;47.844;8.966;2023-03-23T06:42:15;95660.81;;;7.62;100.00
58385;BME280;44185;47.844;8.966;2023-03-23T06:44:41;95665.00;;;7.64;100.00
58385;BME280;44185;47.844;8.966;2023-03-23T06:47:08;95665.63;;;7.56;100.00
58385;BME280;44185;47.844;8.966;2023-03-23T06:49:34;95667.97;;;7.71;100.00
58385;BME280;44185;47.844;8.966;2023-03-23T06:51:59;95672.34;;;7.82;100.00
58385;BME280;44185;47.844;8.966;2023-03-23T06:54:25;95673.28;;;7.81;100.00
58385;BME280;44185;47.844;8.966;2023-03-23T06:56:50;95672.53;;;7.90;100.00
58385;BME280;44185;47.844;8.966;2023-03-23T06:59:16;95677.97;;;7.99;100.00
58385;BME280;44185;47.844;8.966;2023-03-23T07:01:41;95679.81;;;8.08;100.00
58385;BME280;44185;47.844;8.966;2023-03-23T07:04:08;95686.81;;;8.19;100.00
58385;BME280;44185;47.844;8.966;2023-03-23T07:06:34;95687.44;;;8.33;100.00
58385;BME280;44185;47.844;8.966;2023-03-23T07:08:59;95684.69;;;8.44;100.00
58385;BME280;44185;47.844;8.966;2023-03-23T07:11:25;95680.03;;;8.58;100.00
58385;BME280;44185;47.844;8.966;2023-03-23T07:13:50;95687.88;;;8.70;100.00
58385;BME280;44185;47.844;8.966;2023-03-23T07:16:16;95686.38;;;8.77;100.00
58385;BME280;44185;47.844;8.966;2023-03-23T07:18:41;95692.09;;;8.92;100.00
58385;BME280;44185;47.844;8.966;2023-03-23T07:21:08;95693.34;;;8.98;100.00
58385;BME280;44185;47.844;8.966;2023-03-23T07:23:34;95688.41;;;9.15;100.00
58385;BME280;44185;47.844;8.966;2023-03-23T07:25:59;95683.94;;;9.35;100.00
58385;BME280;44185;47.844;8.966;2023-03-23T07:28:25;95689.09;;;9.47;99.83
58385;BME280;44185;47.844;8.966;2023-03-23T07:30:50;95683.81;;;9.66;100.00
58385;BME280;44185;47.844;8.966;2023-03-23T07:33:16;95687.38;;;9.95;99.23
58385;BME280;44185;47.844;8.966;2023-03-23T07:35:41;95693.91;;;10.11;99.84
58385;BME280;44185;47.844;8.966;2023-03-23T07:38:08;95689.88;;;10.07;96.85
58385;BME280;44185;47.844;8.966;2023-03-23T07:40:34;95694.59;;;10.13;94.22
58385;BME280;44185;47.844;8.966;2023-03-23T07:43:02;95688.84;;;10.28;94.71
58385;BME280;44185;47.844;8.966;2023-03-23T07:45:28;95703.56;;;10.40;94.49
58385;BME280;44185;47.844;8.966;2023-03-23T07:47:54;95700.88;;;10.50;91.19
58385;BME280;44185;47.844;8.966;2023-03-23T07:50:19;95701.72;;;10.61;91.66
58385;BME280;44185;47.844;8.966;2023-03-23T07:52:45;95702.50;;;10.71;91.20
58385;BME280;44185;47.844;8.966;2023-03-23T07:55:12;95700.78;;;10.80;90.59
58385;BME280;44185;47.844;8.966;2023-03-23T07:57:38;95695.66;;;10.97;89.40
58385;BME280;44185;47.844;8.966;2023-03-23T08:00:06;95697.34;;;10.98;90.59
58385;BME280;44185;47.844;8.966;2023-03-23T08:02:31;95691.47;;;11.22;85.50
58385;BME280;44185;47.844;8.966;2023-03-23T08:04:57;95690.56;;;11.32;82.94
58385;BME280;44185;47.844;8.966;2023-03-23T08:07:22;95685.88;;;11.44;83.16
58385;BME280;44185;47.844;8.966;2023-03-23T08:09:48;95684.59;;;11.48;82.20
58385;BME280;44185;47.844;8.966;2023-03-23T08:12:14;95697.84;;;11.48;82.05
58385;BME280;44185;47.844;8.966;2023-03-23T08:14:40;95699.19;;;11.52;81.59
58385;BME280;44185;47.844;8.966;2023-03-23T08:17:05;95701.09;;;11.60;81.52
58385;BME280;44185;47.844;8.966;2023-03-23T08:19:31;95699.66;;;11.66;79.03
58385;BME280;44185;47.844;8.966;2023-03-23T08:21:56;95704.03;;;11.75;78.84
58385;BME280;44185;47.844;8.966;2023-03-23T08:24:22;95708.81;;;11.72;78.80
58385;BME280;44185;47.844;8.966;2023-03-23T08:26:47;95712.66;;;11.77;79.81
58385;BME280;44185;47.844;8.966;2023-03-23T08:29:14;95716.91;;;11.88;78.23
58385;BME280;44185;47.844;8.966;2023-03-23T08:31:39;95718.16;;;12.02;79.61
58385;BME280;44185;47.844;8.966;2023-03-23T08:34:05;95714.59;;;12.12;77.07
58385;BME280;44185;47.844;8.966;2023-03-23T08:36:31;95715.50;;;12.21;79.54
58385;BME280;44185;47.844;8.966;2023-03-23T08:38:56;95717.53;;;12.27;76.33
58385;BME280;44185;47.844;8.966;2023-03-23T08:41:22;95715.78;;;12.36;74.79
58385;BME280;44185;47.844;8.966;2023-03-23T08:43:47;95725.59;;;12.44;74.63
58385;BME280;44185;47.844;8.966;2023-03-23T08:46:14;95725.47;;;12.54;76.29
58385;BME280;44185;47.844;8.966;2023-03-23T08:48:39;95723.41;;;12.66;76.25
58385;BME280;44185;47.844;8.966;2023-03-23T08:51:06;95725.63;;;12.79;72.83
58385;BME280;44185;47.844;8.966;2023-03-23T08:53:32;95728.72;;;12.74;74.65
58385;BME280;44185;47.844;8.966;2023-03-23T08:56:03;95723.94;;;12.78;73.90
58385;BME280;44185;47.844;8.966;2023-03-23T08:58:29;95726.44;;;12.79;72.79
58385;BME280;44185;47.844;8.966;2023-03-23T09:00:54;95720.66;;;12.93;71.72
58385;BME280;44185;47.844;8.966;2023-03-23T09:03:21;95725.06;;;13.10;71.20
58385;BME280;44185;47.844;8.966;2023-03-23T09:05:47;95727.06;;;13.17;72.47
58385;BME280;44185;47.844;8.966;2023-03-23T09:08:12;95726.47;;;13.40;70.44
58385;BME280;44185;47.844;8.966;2023-03-23T09:10:38;95725.47;;;13.41;73.35
58385;BME280;44185;47.844;8.966;2023-03-23T09:13:04;95731.81;;;13.56;68.38
58385;BME280;44185;47.844;8.966;2023-03-23T09:15:29;95722.22;;;13.72;71.57
58385;BME280;44185;47.844;8.966;2023-03-23T09:17:55;95731.69;;;13.92;71.21
58385;BME280;44185;47.844;8.966;2023-03-23T09:20:23;95742.84;;;14.04;70.89
58385;BME280;44185;47.844;8.966;2023-03-23T09:22:50;95748.84;;;14.06;69.59
58385;BME280;44185;47.844;8.966;2023-03-23T09:25:17;95754.16;;;14.14;70.52
58385;BME280;44185;47.844;8.966;2023-03-23T09:27:43;95758.31;;;14.25;68.60
58385;BME280;44185;47.844;8.966;2023-03-23T09:30:11;95753.47;;;14.45;70.11
58385;BME280;44185;47.844;8.966;2023-03-23T09:32:37;95756.31;;;14.36;66.54
58385;BME280;44185;47.844;8.966;2023-03-23T09:35:06;95758.59;;;14.47;68.16
58385;BME280;44185;47.844;8.966;2023-03-23T09:37:33;95752.28;;;14.56;64.63
58385;BME280;44185;47.844;8.966;2023-03-23T09:39:59;95750.94;;;14.52;63.41
58385;BME280;44185;47.844;8.966;2023-03-23T09:42:35;95749.94;;;14.53;64.53
58385;BME280;44185;47.844;8.966;2023-03-23T09:45:12;95749.41;;;14.66;63.11
58385;BME280;44185;47.844;8.966;2023-03-23T09:47:46;95754.53;;;14.76;62.87
58385;BME280;44185;47.844;8.966;2023-03-23T09:50:16;95753.88;;;14.83;64.68
58385;BME280;44185;47.844;8.966;2023-03-23T09:52:55;95755.09;;;14.63;64.64
58385;BME280;44185;47.844;8.966;2023-03-23T09:55:22;95752.44;;;14.46;62.79
58385;BME280;44185;47.844;8.966;2023-03-23T09:57:52;95761.13;;;14.49;63.68
58385;BME280;44185;47.844;8.966;2023-03-23T10:00:23;95759.41;;;14.64;65.56
58385;BME280;44185;47.844;8.966;2023-03-23T10:02:55;95761.38;;;14.71;65.03
58385;BME280;44185;47.844;8.966;2023-03-23T10:05:30;95756.44;;;14.59;62.66
58385;BME280;44185;47.844;8.966;2023-03-23T10:07:58;95762.22;;;14.63;64.99
58385;BME280;44185;47.844;8.966;2023-03-23T10:10:31;95763.59;;;14.59;64.76
58385;BME280;44185;47.844;8.966;2023-03-23T10:13:04;95767.25;;;14.57;63.72
58385;BME280;44185;47.844;8.966;2023-03-23T10:15:35;95769.88;;;14.66;63.93
58385;BME280;44185;47.844;8.966;2023-03-23T10:18:08;95768.38;;;14.72;62.75
58385;BME280;44185;47.844;8.966;2023-03-23T10:20:43;95763.72;;;14.74;62.38
58385;BME280;44185;47.844;8.966;2023-03-23T10:23:36;95768.19;;;14.90;62.80
58385;BME280;44185;47.844;8.966;2023-03-23T10:26:10;95767.53;;;14.96;61.71
58385;BME280;44185;47.844;8.966;2023-03-23T10:28:43;95763.03;;;14.97;62.13
58385;BME280;44185;47.844;8.966;2023-03-23T10:31:11;95766.03;;;14.94;61.87
58385;BME280;44185;47.844;8.966;2023-03-23T10:33:41;95766.81;;;15.03;61.13
58385;BME280;44185;47.844;8.966;2023-03-23T10:36:10;95762.66;;;15.00;60.61
58385;BME280;44185;47.844;8.966;2023-03-23T10:38:43;95754.97;;;15.05;61.18
58385;BME280;44185;47.844;8.966;2023-03-23T10:41:11;95758.13;;;15.09;61.35
58385;BME280;44185;47.844;8.966;2023-03-23T10:43:37;95756.84;;;15.05;60.25
58385;BME280;44185;47.844;8.966;2023-03-23T10:46:19;95769.13;;;15.06;59.97
58385;BME280;44185;47.844;8.966;2023-03-23T10:48:47;95780.59;;;15.15;61.10
58385;BME280;44185;47.844;8.966;2023-03-23T10:51:17;95768.94;;;15.16;60.96
58385;BME280;44185;47.844;8.966;2023-03-23T10:53:49;95783.94;;;15.17;61.89
58385;BME280;44185;47.844;8.966;2023-03-23T10:56:24;95783.09;;;15.16;61.07
58385;BME280;44185;47.844;8.966;2023-03-23T10:58:50;95772.75;;;15.13;59.01
58385;BME280;44185;47.844;8.966;2023-03-23T11:01:18;95769.94;;;15.15;60.10
58385;BME280;44185;47.844;8.966;2023-03-23T11:03:46;95757.41;;;15.23;59.97
58385;BME280;44185;47.844;8.966;2023-03-23T11:06:19;95758.38;;;15.31;60.44
58385;BME280;44185;47.844;8.966;2023-03-23T11:08:53;95768.69;;;15.34;59.26
58385;BME280;44185;47.844;8.966;2023-03-23T11:11:21;95768.06;;;15.23;59.12
58385;BME280;44185;47.844;8.966;2023-03-23T11:13:57;95759.91;;;15.25;59.65
58385;BME280;44185;47.844;8.966;2023-03-23T11:16:27;95762.88;;;15.30;60.23
58385;BME280;44185;47.844;8.966;2023-03-23T11:18:53;95753.41;;;15.28;59.80
58385;BME280;44185;47.844;8.966;2023-03-23T11:21:21;95764.72;;;15.30;60.17
58385;BME280;44185;47.844;8.966;2023-03-23T11:23:50;95755.56;;;15.24;58.38
58385;BME280;44185;47.844;8.966;2023-03-23T11:26:17;95759.03;;;15.33;60.03
58385;BME280;44185;47.844;8.966;2023-03-23T11:28:47;95755.53;;;15.32;59.99
58385;BME280;44185;47.844;8.966;2023-03-23T11:31:16;95751.66;;;15.43;59.03
58385;BME280;44185;47.844;8.966;2023-03-23T11:33:50;95753.16;;;15.38;59.28
58385;BME280;44185;47.844;8.966;2023-03-23T11:36:17;95754.09;;;15.53;60.18
58385;BME280;44185;47.844;8.966;2023-03-23T11:38:43;95747.56;;;15.56;59.20
58385;BME280;44185;47.844;8.966;2023-03-23T11:41:12;95753.25;;;15.53;58.68
58385;BME280;44185;47.844;8.966;2023-03-23T11:43:40;95752.75;;;15.57;58.34
58385;BME280;44185;47.844;8.966;2023-03-23T11:46:14;95752.84;;;15.64;57.97
58385;BME280;44185;47.844;8.966;2023-03-23T11:48:51;95748.41;;;15.80;57.34
58385;BME280;44185;47.844;8.966;2023-03-23T11:51:23;95741.25;;;15.81;56.54
58385;BME280;44185;47.844;8.966;2023-03-23T11:53:57;95746.59;;;15.81;57.66
58385;BME280;44185;47.844;8.966;2023-03-23T11:56:29;95749.13;;;15.97;56.39
58385;BME280;44185;47.844;8.966;2023-03-23T11:58:57;95754.41;;;16.06;56.16
58385;BME280;44185;47.844;8.966;2023-03-23T12:01:39;95753.50;;;15.90;56.00
58385;BME280;44185;47.844;8.966;2023-03-23T12:04:32;95744.09;;;16.03;56.42
58385;BME280;44185;47.844;8.966;2023-03-23T12:07:12;95746.06;;;16.09;57.41
58385;BME280;44185;47.844;8.966;2023-03-23T12:09:45;95739.94;;;16.00;56.55
58385;BME280;44185;47.844;8.966;2023-03-23T12:12:18;95734.47;;;15.93;55.89
58385;BME280;44185;47.844;8.966;2023-03-23T12:14:54;95736.06;;;16.11;57.52
58385;BME280;44185;47.844;8.966;2023-03-23T12:17:32;95737.25;;;16.08;57.48
58385;BME280;44185;47.844;8.966;2023-03-23T12:20:11;95741.78;;;15.99;56.50
58385;BME280;44185;47.844;8.966;2023-03-23T12:22:46;95732.34;;;16.12;57.09
58385;BME280;44185;47.844;8.966;2023-03-23T12:25:30;95732.59;;;16.02;56.16
58385;BME280;44185;47.844;8.966;2023-03-23T12:28:06;95724.28;;;15.97;56.80
58385;BME280;44185;47.844;8.966;2023-03-23T12:30:41;95729.03;;;15.86;56.86
58385;BME280;44185;47.844;8.966;2023-03-23T12:33:17;95724.34;;;15.88;57.56
58385;BME280;44185;47.844;8.966;2023-03-23T12:35:50;95732.94;;;15.99;57.66
58385;BME280;44185;47.844;8.966;2023-03-23T12:38:57;95732.25;;;15.82;56.95
58385;BME280;44185;47.844;8.966;2023-03-23T12:41:28;95727.84;;;15.65;57.34
58385;BME280;44185;47.844;8.966;2023-03-23T12:43:59;95730.81;;;15.71;57.99
58385;BME280;44185;47.844;8.966;2023-03-23T12:49:19;95719.56;;;15.84;62.06
58385;BME280;44185;47.844;8.966;2023-03-23T12:51:51;95721.88;;;15.87;60.98
58385;BME280;44185;47.844;8.966;2023-03-23T12:54:25;95729.09;;;15.78;60.16
58385;BME280;44185;47.844;8.966;2023-03-23T12:56:56;95719.00;;;15.88;59.70
58385;BME280;44185;47.844;8.966;2023-03-23T12:59:32;95715.56;;;15.79;59.02
58385;BME280;44185;47.844;8.966;2023-03-23T13:02:05;95710.91;;;15.82;60.42
58385;BME280;44185;47.844;8.966;2023-03-23T13:04:36;95715.75;;;15.78;58.15
58385;BME280;44185;47.844;8.966;2023-03-23T13:07:05;95714.56;;;15.81;58.06
58385;BME280;44185;47.844;8.966;2023-03-23T13:09:43;95708.53;;;15.87;60.26
58385;BME280;44185;47.844;8.966;2023-03-23T13:12:10;95699.16;;;15.91;58.72